Flight Track Log - Related Links

Times and Time Zones

All times are in EDT time to prevent confusion due to time zone crossing. See the N722NG flight status page for this flight to view local times or setup timezone preferences in your user account.

Time Position Orientation Groundspeed Altitude Reporting Facility
EDT Latitude Longitude Course Direction KTS MPH feet Rate Location/Type
Tue 03:03:11 PM 30.4611 -88.0250 258° West 144 166 3,600  Level Houston Center
Tue 03:04:13 PM 30.4506 -88.0733 256° West 147 169 4,400 864 Climbing Houston Center
Tue 03:05:16 PM 30.4411 -88.1253 258° West 157 181 5,400 768 Climbing Houston Center
Tue 03:06:18 PM 30.4317 -88.1742 257° West 158 182 6,000 194 Climbing Houston Center
Tue 03:07:00 PM 30.3947 -88.1635 258° West  Level FlightAware Approximate
Tue 03:08:00 PM 30.3859 -88.2131 258° West  Level FlightAware Approximate
Tue 03:08:22 PM 30.4061 -88.3011 257° West 179 206 6,000  Level Houston Center
Tue 03:09:24 PM 30.3939 -88.3567 256° West 179 206 6,000  Level Houston Center
Tue 03:10:26 PM 30.3839 -88.4122 258° West 179 206 6,000  Level Houston Center
Tue 03:11:28 PM 30.3719 -88.4672 256° West 179 206 6,000  Level Houston Center
Tue 03:12:31 PM 30.3606 -88.5233 257° West 179 206 6,000  Level Houston Center
Tue 03:13:33 PM 30.3469 -88.5900 257° West 179 206 6,000  Level Houston Center
Tue 03:14:35 PM 30.3347 -88.6447 256° West 179 206 6,000  Level Houston Center
Tue 03:16:39 PM 30.3122 -88.7550 256° West 178 205 6,000  Level Houston Center
Tue 03:17:38 PM 30.2994 -88.8142 256° West 176 203 6,000  Level Houston Center
Tue 03:18:43 PM 30.2900 -88.8650 258° West 178 205 6,000  Level Houston Center
Tue 03:19:45 PM 30.2764 -88.9322 257° West 178 205 6,000  Level Houston Center
Tue 03:20:47 PM 30.2642 -88.9864 255° West 178 205 6,000  Level Houston Center
Tue 03:21:14 PM 30.2575 -89.0111 253° West 178 205 6,000  Level Houston Center
Tue 03:21:49 PM 30.2531 -89.0414 260° West 178 205 6,000  Level Houston Center
Tue 03:22:51 PM 30.2419 -89.0958 257° West 178 205 6,000  Level Houston Center
Tue 03:23:54 PM 30.2303 -89.1522 257° West 178 205 6,000  Level Houston Center
Tue 03:24:56 PM 30.2183 -89.2072 256° West 178 205 6,000  Level Houston Center
Tue 03:25:58 PM 30.2039 -89.2722 256° West 177 204 6,000 53 Level Houston Center
Tue 03:26:49 PM 30.1953 -89.3236 259° West 176 203 6,100  Climbing Houston Center
Tue 03:27:00 PM 30.1928 -89.3278 235° Southwest 177 204 6,000  Descending Houston Center
Tue 03:27:56 PM 30.1808 -89.3822 256° West 177 204 6,100 51 Climbing Houston Center
Tue 03:28:57 PM 30.1683 -89.4406 256° West 177 204 6,100 -220 Level Houston Center
Tue 03:29:45 PM 30.1614 -89.4842 260° West 179 206 5,700 -522 Descending Houston Center
Tue 03:30:06 PM 30.1572 -89.4956 247° West 178 205 5,500 -627 Descending Houston Center
Tue 03:30:52 PM 30.1472 -89.5497 258° West 197 227 5,000 -677 Descending Houston Center
Tue 03:31:08 PM 30.1436 -89.5578 243° Southwest 188 216 4,800 -787 Descending Houston Center
Tue 03:31:53 PM 30.1328 -89.6178 258° West 203 234 4,200 -774 Descending Houston Center
Tue 03:32:10 PM 30.1278 -89.6331 249° West 195 224 4,000 -689 Descending Houston Center
Tue 03:32:54 PM 30.1183 -89.6786 257° West 199 229 3,500 -677 Descending Houston Center
Tue 03:33:12 PM 30.1133 -89.6953 251° West 195 224 3,300 -689 Descending Houston Center
Tue 03:33:55 PM 30.1036 -89.7417 256° West 197 227 2,800 -677 Descending Houston Center
Tue 03:34:14 PM 30.1008 -89.7572 258° West 196 226 2,600 -200 Descending Houston Center
Tue 03:34:55 PM 30.0869 -89.8000 249° West 190 219 2,600 -194 Level Houston Center
Tue 03:35:16 PM 30.0828 -89.8142 251° West 192 221 2,400 -393 Descending Houston Center
Tue 03:35:56 PM 30.0719 -89.8561 253° West 184 212 2,200 -387 Descending Houston Center
Tue 03:36:18 PM 30.0669 -89.8708 249° West 187 215 2,000 -393 Descending Houston Center
Tue 03:36:57 PM 30.0531 -89.9097 248° West 187 215 1,800 -194 Descending Houston Center
Tue 03:37:20 PM 30.0469 -89.9258 246° West 187 215 1,800 -295 Level Houston Center
Tue 03:37:58 PM 30.0297 -89.9658 244° Southwest 179 206 1,500 -484 Descending Houston Center
Tue 03:38:22 PM 30.0250 -89.9781 246° West 186 214 1,300 -500 Descending Houston Center
Tue 03:38:58 PM 30.0125 -90.0147 249° West 153 176 1,000 -484 Descending Houston Center
Tue 03:39:24 PM 30.0125 -90.0228 270° West 154 177 800 -462 Descending Houston Center
Tue 03:41:00 PM 30.0802 -90.0029 14° North  Level FlightAware Approximate

Login

Don't have an account? Register now (free) for customized features, flight alerts, and more!